Fort Russell, Illinois
Current Conditions -  °F | °C
As of 12:15 AM on Thursday 29 Jan 2015 (Local Time) from KALN Reporting Station
Clear Clear  
Wind Chill: 39°   Ceiling: Unl
Heat Index: 45°   Visibility: 10mi
Dew Point: 33°   Wind: 10mph
Humidity: 64%   Direction: 160°SSE
Pressure: 29.8"   Gusts: NA
Location:  38.9045°N, 90.0089°W
Report Text: KALN 290615Z AUTO 16009KT 10SM CLR 07/01 A2980 RMK AO2 T00700005
Loading
Personal Weather Stations






























Interactive Weather Map New forecast layout! Learn more

10-Day Weather Forecast

Advertisements
Track Severe Weather on mobile